Ashland, Wisconsin
Current Conditions -  °F | °C
As of 8:53 PM on Thursday 27 Nov 2014 (Local Time) from KASX Reporting Station
Clear Clear  
Wind Chill: -19°   Ceiling: Unl
Heat Index: -19°   Visibility: 10mi
Dew Point: -22°   Wind: 0mph
Humidity: 79%   Direction: NA
Pressure: 30.34"   Gusts: NA
Location:  46.59°N, 90.89°W
Report Text: KASX 280253Z AUTO 00000KT 10SM CLR M19/M22 A3034 RMK AO2 SLP300 I3000 T11891217 56018
Loading
Personal Weather Stations






























Interactive Weather Map New forecast layout! Learn more

10-Day Weather Forecast

Advertisements
Track Severe Weather on mobile